sensor_id;sensor_type;location;lat;lon;timestamp;P1;durP1;ratioP1;P2;durP2;ratioP2
37275;SDS011;23166;51.150;21.620;2022-09-24T00:01:15;8.88;;;4.10;;
37275;SDS011;23166;51.150;21.620;2022-09-24T00:03:43;9.40;;;3.62;;
37275;SDS011;23166;51.150;21.620;2022-09-24T00:06:11;8.23;;;4.78;;
37275;SDS011;23166;51.150;21.620;2022-09-24T00:08:43;10.95;;;5.22;;
37275;SDS011;23166;51.150;21.620;2022-09-24T00:11:11;7.97;;;4.33;;
37275;SDS011;23166;51.150;21.620;2022-09-24T00:13:39;5.67;;;4.15;;
37275;SDS011;23166;51.150;21.620;2022-09-24T00:16:07;8.50;;;4.00;;
37275;SDS011;23166;51.150;21.620;2022-09-24T00:18:35;6.22;;;3.15;;
37275;SDS011;23166;51.150;21.620;2022-09-24T00:23:48;9.03;;;4.40;;
37275;SDS011;23166;51.150;21.620;2022-09-24T00:26:17;11.12;;;4.15;;
37275;SDS011;23166;51.150;21.620;2022-09-24T00:29:02;5.87;;;3.67;;
37275;SDS011;23166;51.150;21.620;2022-09-24T00:31:30;12.20;;;4.95;;
37275;SDS011;23166;51.150;21.620;2022-09-24T00:33:57;12.73;;;4.47;;
37275;SDS011;23166;51.150;21.620;2022-09-24T00:36:23;9.43;;;4.58;;
37275;SDS011;23166;51.150;21.620;2022-09-24T00:38:51;5.60;;;3.65;;
37275;SDS011;23166;51.150;21.620;2022-09-24T00:41:20;5.10;;;3.25;;
37275;SDS011;23166;51.150;21.620;2022-09-24T00:43:48;10.55;;;3.08;;
37275;SDS011;23166;51.150;21.620;2022-09-24T00:49:02;9.05;;;3.27;;
37275;SDS011;23166;51.150;21.620;2022-09-24T00:54:16;9.73;;;4.78;;
37275;SDS011;23166;51.150;21.620;2022-09-24T00:56:48;6.53;;;3.92;;
37275;SDS011;23166;51.150;21.620;2022-09-24T00:59:16;6.58;;;3.90;;
37275;SDS011;23166;51.150;21.620;2022-09-24T01:01:45;4.10;;;3.35;;
37275;SDS011;23166;51.150;21.620;2022-09-24T01:04:13;9.95;;;4.55;;
37275;SDS011;23166;51.150;21.620;2022-09-24T01:06:42;7.45;;;3.87;;
37275;SDS011;23166;51.150;21.620;2022-09-24T01:09:09;10.18;;;4.40;;
37275;SDS011;23166;51.150;21.620;2022-09-24T01:11:41;6.70;;;3.67;;
37275;SDS011;23166;51.150;21.620;2022-09-24T01:23:11;4.67;;;3.67;;
37275;SDS011;23166;51.150;21.620;2022-09-24T01:26:00;4.20;;;2.80;;
37275;SDS011;23166;51.150;21.620;2022-09-24T01:33:58;6.53;;;4.00;;
37275;SDS011;23166;51.150;21.620;2022-09-24T01:36:27;6.33;;;3.80;;
37275;SDS011;23166;51.150;21.620;2022-09-24T01:38:55;7.20;;;3.33;;
37275;SDS011;23166;51.150;21.620;2022-09-24T01:41:23;5.47;;;3.08;;
37275;SDS011;23166;51.150;21.620;2022-09-24T01:43:49;8.48;;;3.52;;
37275;SDS011;23166;51.150;21.620;2022-09-24T01:46:16;6.45;;;3.05;;
37275;SDS011;23166;51.150;21.620;2022-09-24T01:48:45;5.75;;;3.12;;
37275;SDS011;23166;51.150;21.620;2022-09-24T01:51:16;3.77;;;2.55;;
37275;SDS011;23166;51.150;21.620;2022-09-24T01:54:01;3.92;;;2.80;;
37275;SDS011;23166;51.150;21.620;2022-09-24T01:56:37;4.25;;;2.40;;
37275;SDS011;23166;51.150;21.620;2022-09-24T01:59:19;5.10;;;3.15;;
37275;SDS011;23166;51.150;21.620;2022-09-24T02:01:58;6.10;;;2.95;;
37275;SDS011;23166;51.150;21.620;2022-09-24T02:04:35;9.63;;;3.87;;
37275;SDS011;23166;51.150;21.620;2022-09-24T02:07:04;4.90;;;2.27;;
37275;SDS011;23166;51.150;21.620;2022-09-24T02:09:41;5.37;;;2.75;;
37275;SDS011;23166;51.150;21.620;2022-09-24T02:14:40;4.53;;;2.85;;
37275;SDS011;23166;51.150;21.620;2022-09-24T02:17:12;6.78;;;3.85;;
37275;SDS011;23166;51.150;21.620;2022-09-24T02:19:39;5.05;;;2.58;;
37275;SDS011;23166;51.150;21.620;2022-09-24T02:22:07;3.75;;;2.37;;
37275;SDS011;23166;51.150;21.620;2022-09-24T02:24:44;4.78;;;3.00;;
37275;SDS011;23166;51.150;21.620;2022-09-24T02:27:19;5.00;;;2.87;;
37275;SDS011;23166;51.150;21.620;2022-09-24T02:29:46;6.05;;;3.22;;
37275;SDS011;23166;51.150;21.620;2022-09-24T02:32:13;4.70;;;2.17;;
37275;SDS011;23166;51.150;21.620;2022-09-24T02:34:43;7.00;;;3.45;;
37275;SDS011;23166;51.150;21.620;2022-09-24T02:37:13;4.72;;;2.80;;
37275;SDS011;23166;51.150;21.620;2022-09-24T02:39:40;3.72;;;2.80;;
37275;SDS011;23166;51.150;21.620;2022-09-24T02:42:07;3.67;;;3.08;;
37275;SDS011;23166;51.150;21.620;2022-09-24T02:44:35;5.87;;;3.42;;
37275;SDS011;23166;51.150;21.620;2022-09-24T02:47:02;6.67;;;3.62;;
37275;SDS011;23166;51.150;21.620;2022-09-24T02:49:29;3.92;;;2.35;;
37275;SDS011;23166;51.150;21.620;2022-09-24T02:51:55;5.05;;;2.70;;
37275;SDS011;23166;51.150;21.620;2022-09-24T02:54:22;2.70;;;1.57;;
37275;SDS011;23166;51.150;21.620;2022-09-24T02:56:50;3.02;;;2.70;;
37275;SDS011;23166;51.150;21.620;2022-09-24T02:59:16;3.98;;;2.72;;
37275;SDS011;23166;51.150;21.620;2022-09-24T03:04:10;4.33;;;1.77;;
37275;SDS011;23166;51.150;21.620;2022-09-24T03:06:37;6.08;;;2.90;;
37275;SDS011;23166;51.150;21.620;2022-09-24T03:09:03;4.80;;;2.17;;
37275;SDS011;23166;51.150;21.620;2022-09-24T03:11:30;3.75;;;3.12;;
37275;SDS011;23166;51.150;21.620;2022-09-24T03:13:58;5.00;;;2.70;;
37275;SDS011;23166;51.150;21.620;2022-09-24T03:18:51;5.90;;;2.67;;
37275;SDS011;23166;51.150;21.620;2022-09-24T03:21:18;3.17;;;2.87;;
37275;SDS011;23166;51.150;21.620;2022-09-24T03:23:46;5.00;;;2.47;;
37275;SDS011;23166;51.150;21.620;2022-09-24T03:26:12;4.35;;;2.67;;
37275;SDS011;23166;51.150;21.620;2022-09-24T03:28:40;4.10;;;3.12;;
37275;SDS011;23166;51.150;21.620;2022-09-24T03:31:06;2.27;;;1.85;;
37275;SDS011;23166;51.150;21.620;2022-09-24T03:33:34;3.40;;;2.05;;
37275;SDS011;23166;51.150;21.620;2022-09-24T03:38:38;3.12;;;2.12;;
37275;SDS011;23166;51.150;21.620;2022-09-24T03:41:06;3.43;;;2.47;;
37275;SDS011;23166;51.150;21.620;2022-09-24T03:43:33;4.37;;;2.20;;
37275;SDS011;23166;51.150;21.620;2022-09-24T03:46:00;2.98;;;2.02;;
37275;SDS011;23166;51.150;21.620;2022-09-24T03:50:54;3.33;;;2.37;;
37275;SDS011;23166;51.150;21.620;2022-09-24T03:53:21;4.72;;;3.22;;
37275;SDS011;23166;51.150;21.620;2022-09-24T03:55:51;4.08;;;2.55;;
37275;SDS011;23166;51.150;21.620;2022-09-24T03:58:20;4.62;;;2.85;;
37275;SDS011;23166;51.150;21.620;2022-09-24T04:00:47;4.15;;;2.40;;
37275;SDS011;23166;51.150;21.620;2022-09-24T04:03:13;2.40;;;2.12;;
37275;SDS011;23166;51.150;21.620;2022-09-24T04:05:40;5.42;;;2.77;;
37275;SDS011;23166;51.150;21.620;2022-09-24T04:10:33;4.22;;;3.15;;
37275;SDS011;23166;51.150;21.620;2022-09-24T04:12:59;10.90;;;2.58;;
37275;SDS011;23166;51.150;21.620;2022-09-24T04:15:26;4.47;;;2.72;;
37275;SDS011;23166;51.150;21.620;2022-09-24T04:17:53;3.77;;;2.20;;
37275;SDS011;23166;51.150;21.620;2022-09-24T04:20:21;5.17;;;3.27;;
37275;SDS011;23166;51.150;21.620;2022-09-24T04:22:49;3.08;;;2.05;;
37275;SDS011;23166;51.150;21.620;2022-09-24T04:27:43;3.65;;;1.92;;
37275;SDS011;23166;51.150;21.620;2022-09-24T04:30:10;3.80;;;2.50;;
37275;SDS011;23166;51.150;21.620;2022-09-24T04:32:38;3.17;;;2.58;;
37275;SDS011;23166;51.150;21.620;2022-09-24T04:35:06;4.28;;;2.52;;
37275;SDS011;23166;51.150;21.620;2022-09-24T04:37:33;4.55;;;2.33;;
37275;SDS011;23166;51.150;21.620;2022-09-24T04:39:59;2.17;;;1.57;;
37275;SDS011;23166;51.150;21.620;2022-09-24T04:42:26;2.52;;;1.77;;
37275;SDS011;23166;51.150;21.620;2022-09-24T04:44:52;3.50;;;2.52;;
37275;SDS011;23166;51.150;21.620;2022-09-24T04:47:19;5.90;;;3.33;;
37275;SDS011;23166;51.150;21.620;2022-09-24T04:49:47;3.77;;;2.47;;
37275;SDS011;23166;51.150;21.620;2022-09-24T04:52:14;7.55;;;2.67;;
37275;SDS011;23166;51.150;21.620;2022-09-24T04:54:40;7.55;;;2.50;;
37275;SDS011;23166;51.150;21.620;2022-09-24T04:57:09;4.25;;;2.55;;
37275;SDS011;23166;51.150;21.620;2022-09-24T04:59:36;4.83;;;2.98;;
37275;SDS011;23166;51.150;21.620;2022-09-24T05:02:02;2.52;;;2.17;;
37275;SDS011;23166;51.150;21.620;2022-09-24T05:04:30;8.63;;;3.73;;
37275;SDS011;23166;51.150;21.620;2022-09-24T05:06:57;3.90;;;2.42;;
37275;SDS011;23166;51.150;21.620;2022-09-24T05:09:25;8.10;;;2.98;;
37275;SDS011;23166;51.150;21.620;2022-09-24T05:11:52;4.12;;;2.77;;
37275;SDS011;23166;51.150;21.620;2022-09-24T05:16:45;4.47;;;2.95;;
37275;SDS011;23166;51.150;21.620;2022-09-24T05:19:11;4.08;;;2.50;;
37275;SDS011;23166;51.150;21.620;2022-09-24T05:21:37;5.40;;;3.37;;
37275;SDS011;23166;51.150;21.620;2022-09-24T05:24:04;4.10;;;2.52;;
37275;SDS011;23166;51.150;21.620;2022-09-24T05:26:30;3.87;;;2.52;;
37275;SDS011;23166;51.150;21.620;2022-09-24T05:29:15;5.00;;;2.87;;
37275;SDS011;23166;51.150;21.620;2022-09-24T05:31:41;3.45;;;2.95;;
37275;SDS011;23166;51.150;21.620;2022-09-24T05:34:08;3.30;;;2.40;;
37275;SDS011;23166;51.150;21.620;2022-09-24T05:36:34;3.27;;;2.83;;
37275;SDS011;23166;51.150;21.620;2022-09-24T05:39:01;4.28;;;2.33;;
37275;SDS011;23166;51.150;21.620;2022-09-24T05:41:27;5.42;;;2.55;;
37275;SDS011;23166;51.150;21.620;2022-09-24T05:43:53;2.58;;;2.10;;
37275;SDS011;23166;51.150;21.620;2022-09-24T05:46:21;4.70;;;2.65;;
37275;SDS011;23166;51.150;21.620;2022-09-24T05:48:48;2.80;;;2.35;;
37275;SDS011;23166;51.150;21.620;2022-09-24T05:51:14;5.85;;;3.47;;
37275;SDS011;23166;51.150;21.620;2022-09-24T05:53:40;3.10;;;2.72;;
37275;SDS011;23166;51.150;21.620;2022-09-24T05:56:07;5.15;;;2.70;;
37275;SDS011;23166;51.150;21.620;2022-09-24T05:58:35;4.92;;;3.47;;
37275;SDS011;23166;51.150;21.620;2022-09-24T06:01:01;3.72;;;2.80;;
37275;SDS011;23166;51.150;21.620;2022-09-24T06:03:28;4.55;;;2.62;;
37275;SDS011;23166;51.150;21.620;2022-09-24T06:05:54;4.78;;;2.67;;
37275;SDS011;23166;51.150;21.620;2022-09-24T06:08:21;5.55;;;2.75;;
37275;SDS011;23166;51.150;21.620;2022-09-24T06:10:47;5.60;;;2.72;;
37275;SDS011;23166;51.150;21.620;2022-09-24T06:13:17;3.65;;;2.50;;
37275;SDS011;23166;51.150;21.620;2022-09-24T06:15:45;5.90;;;2.35;;
37275;SDS011;23166;51.150;21.620;2022-09-24T06:18:12;4.70;;;2.75;;
37275;SDS011;23166;51.150;21.620;2022-09-24T06:23:05;2.83;;;2.10;;
37275;SDS011;23166;51.150;21.620;2022-09-24T06:25:32;3.35;;;2.02;;
37275;SDS011;23166;51.150;21.620;2022-09-24T06:27:59;4.13;;;2.33;;
37275;SDS011;23166;51.150;21.620;2022-09-24T06:33:00;8.55;;;3.17;;
37275;SDS011;23166;51.150;21.620;2022-09-24T06:35:33;4.22;;;2.50;;
37275;SDS011;23166;51.150;21.620;2022-09-24T06:38:01;6.62;;;2.85;;
37275;SDS011;23166;51.150;21.620;2022-09-24T06:40:31;5.87;;;2.25;;
37275;SDS011;23166;51.150;21.620;2022-09-24T06:42:57;3.95;;;2.77;;
37275;SDS011;23166;51.150;21.620;2022-09-24T06:45:24;6.67;;;2.98;;
37275;SDS011;23166;51.150;21.620;2022-09-24T06:47:52;3.42;;;2.40;;
37275;SDS011;23166;51.150;21.620;2022-09-24T06:50:20;5.53;;;2.77;;
37275;SDS011;23166;51.150;21.620;2022-09-24T06:52:48;4.35;;;3.02;;
37275;SDS011;23166;51.150;21.620;2022-09-24T06:55:14;5.17;;;2.35;;
37275;SDS011;23166;51.150;21.620;2022-09-24T06:57:41;5.10;;;2.65;;
37275;SDS011;23166;51.150;21.620;2022-09-24T07:00:09;8.40;;;4.33;;
37275;SDS011;23166;51.150;21.620;2022-09-24T07:02:37;7.40;;;3.22;;
37275;SDS011;23166;51.150;21.620;2022-09-24T07:05:04;5.90;;;2.98;;
37275;SDS011;23166;51.150;21.620;2022-09-24T07:07:30;5.65;;;3.02;;
37275;SDS011;23166;51.150;21.620;2022-09-24T07:10:00;15.25;;;3.65;;
37275;SDS011;23166;51.150;21.620;2022-09-24T07:12:32;4.90;;;2.30;;
37275;SDS011;23166;51.150;21.620;2022-09-24T07:15:00;5.87;;;2.60;;
37275;SDS011;23166;51.150;21.620;2022-09-24T07:17:26;7.50;;;2.85;;
37275;SDS011;23166;51.150;21.620;2022-09-24T07:19:54;6.80;;;3.92;;
37275;SDS011;23166;51.150;21.620;2022-09-24T07:22:20;12.98;;;3.27;;
37275;SDS011;23166;51.150;21.620;2022-09-24T07:24:47;7.60;;;2.65;;
37275;SDS011;23166;51.150;21.620;2022-09-24T07:27:13;8.40;;;3.67;;
37275;SDS011;23166;51.150;21.620;2022-09-24T07:29:40;7.08;;;3.65;;
37275;SDS011;23166;51.150;21.620;2022-09-24T07:32:06;6.33;;;2.80;;
37275;SDS011;23166;51.150;21.620;2022-09-24T07:34:33;4.80;;;2.70;;
37275;SDS011;23166;51.150;21.620;2022-09-24T07:36:59;5.10;;;2.92;;
37275;SDS011;23166;51.150;21.620;2022-09-24T07:39:26;7.10;;;4.25;;
37275;SDS011;23166;51.150;21.620;2022-09-24T07:41:52;5.28;;;2.58;;
37275;SDS011;23166;51.150;21.620;2022-09-24T07:44:19;2.47;;;2.17;;
37275;SDS011;23166;51.150;21.620;2022-09-24T07:46:51;3.83;;;2.72;;
37275;SDS011;23166;51.150;21.620;2022-09-24T07:49:16;7.05;;;3.33;;
37275;SDS011;23166;51.150;21.620;2022-09-24T07:51:43;6.97;;;4.03;;
37275;SDS011;23166;51.150;21.620;2022-09-24T07:54:10;5.90;;;4.50;;
37275;SDS011;23166;51.150;21.620;2022-09-24T07:56:36;9.20;;;4.10;;
37275;SDS011;23166;51.150;21.620;2022-09-24T07:59:04;8.00;;;3.33;;
37275;SDS011;23166;51.150;21.620;2022-09-24T08:01:32;4.10;;;2.58;;
37275;SDS011;23166;51.150;21.620;2022-09-24T08:03:59;5.15;;;2.27;;
37275;SDS011;23166;51.150;21.620;2022-09-24T08:06:26;6.28;;;3.20;;
37275;SDS011;23166;51.150;21.620;2022-09-24T08:08:52;3.70;;;1.82;;
37275;SDS011;23166;51.150;21.620;2022-09-24T08:11:20;3.70;;;2.50;;
37275;SDS011;23166;51.150;21.620;2022-09-24T08:13:47;3.27;;;2.35;;
37275;SDS011;23166;51.150;21.620;2022-09-24T08:16:13;3.45;;;2.50;;
37275;SDS011;23166;51.150;21.620;2022-09-24T08:18:41;4.47;;;1.82;;
37275;SDS011;23166;51.150;21.620;2022-09-24T08:21:09;3.22;;;2.00;;
37275;SDS011;23166;51.150;21.620;2022-09-24T08:23:39;2.42;;;1.82;;
37275;SDS011;23166;51.150;21.620;2022-09-24T08:26:07;4.25;;;2.05;;
37275;SDS011;23166;51.150;21.620;2022-09-24T08:28:35;2.60;;;1.82;;
37275;SDS011;23166;51.150;21.620;2022-09-24T08:33:29;2.65;;;1.47;;
37275;SDS011;23166;51.150;21.620;2022-09-24T08:36:01;3.10;;;1.87;;
37275;SDS011;23166;51.150;21.620;2022-09-24T08:38:29;2.12;;;1.70;;
37275;SDS011;23166;51.150;21.620;2022-09-24T08:46:49;3.27;;;1.15;;
37275;SDS011;23166;51.150;21.620;2022-09-24T08:49:37;0.70;;;0.60;;
37275;SDS011;23166;51.150;21.620;2022-09-24T08:54:52;3.00;;;1.60;;
37275;SDS011;23166;51.150;21.620;2022-09-24T08:57:19;3.02;;;1.42;;
37275;SDS011;23166;51.150;21.620;2022-09-24T08:59:50;6.80;;;1.50;;
37275;SDS011;23166;51.150;21.620;2022-09-24T09:07:59;2.30;;;1.20;;
37275;SDS011;23166;51.150;21.620;2022-09-24T09:10:32;2.65;;;1.72;;
37275;SDS011;23166;51.150;21.620;2022-09-24T09:15:43;2.17;;;0.95;;
37275;SDS011;23166;51.150;21.620;2022-09-24T09:21:02;1.77;;;1.02;;
37275;SDS011;23166;51.150;21.620;2022-09-24T09:23:37;1.60;;;1.30;;
37275;SDS011;23166;51.150;21.620;2022-09-24T09:26:07;2.77;;;1.70;;
37275;SDS011;23166;51.150;21.620;2022-09-24T09:28:35;1.32;;;0.82;;
37275;SDS011;23166;51.150;21.620;2022-09-24T09:33:37;2.52;;;1.35;;
37275;SDS011;23166;51.150;21.620;2022-09-24T09:39:37;0.85;;;0.80;;
37275;SDS011;23166;51.150;21.620;2022-09-24T09:42:13;2.33;;;1.52;;
37275;SDS011;23166;51.150;21.620;2022-09-24T09:44:43;3.52;;;1.30;;
37275;SDS011;23166;51.150;21.620;2022-09-24T09:49:39;3.20;;;1.27;;
37275;SDS011;23166;51.150;21.620;2022-09-24T09:52:14;0.98;;;0.80;;
37275;SDS011;23166;51.150;21.620;2022-09-24T09:54:42;0.90;;;0.90;;
37275;SDS011;23166;51.150;21.620;2022-09-24T09:57:14;1.02;;;0.90;;
37275;SDS011;23166;51.150;21.620;2022-09-24T09:59:46;1.77;;;1.22;;
37275;SDS011;23166;51.150;21.620;2022-09-24T10:02:18;1.20;;;0.85;;
37275;SDS011;23166;51.150;21.620;2022-09-24T10:04:46;1.25;;;1.15;;
37275;SDS011;23166;51.150;21.620;2022-09-24T10:07:16;3.52;;;0.98;;
37275;SDS011;23166;51.150;21.620;2022-09-24T10:09:42;1.32;;;1.00;;
37275;SDS011;23166;51.150;21.620;2022-09-24T10:12:16;1.95;;;0.90;;
37275;SDS011;23166;51.150;21.620;2022-09-24T10:14:58;0.95;;;0.80;;
37275;SDS011;23166;51.150;21.620;2022-09-24T10:17:28;1.27;;;1.10;;
37275;SDS011;23166;51.150;21.620;2022-09-24T10:20:12;1.32;;;0.72;;
37275;SDS011;23166;51.150;21.620;2022-09-24T10:22:59;1.12;;;0.90;;
37275;SDS011;23166;51.150;21.620;2022-09-24T10:25:28;1.60;;;1.00;;
37275;SDS011;23166;51.150;21.620;2022-09-24T10:27:53;1.45;;;0.90;;
37275;SDS011;23166;51.150;21.620;2022-09-24T10:30:24;0.70;;;0.70;;
37275;SDS011;23166;51.150;21.620;2022-09-24T10:33:03;1.02;;;0.60;;
37275;SDS011;23166;51.150;21.620;2022-09-24T10:35:34;2.67;;;0.68;;
37275;SDS011;23166;51.150;21.620;2022-09-24T10:40:49;0.42;;;0.42;;
37275;SDS011;23166;51.150;21.620;2022-09-24T10:43:17;0.50;;;0.50;;
37275;SDS011;23166;51.150;21.620;2022-09-24T10:48:43;1.07;;;0.62;;
37275;SDS011;23166;51.150;21.620;2022-09-24T10:51:15;0.80;;;0.80;;
37275;SDS011;23166;51.150;21.620;2022-09-24T10:54:05;2.08;;;1.20;;
37275;SDS011;23166;51.150;21.620;2022-09-24T10:56:35;1.25;;;0.75;;
37275;SDS011;23166;51.150;21.620;2022-09-24T11:01:50;1.25;;;0.98;;
37275;SDS011;23166;51.150;21.620;2022-09-24T11:10:07;2.17;;;0.85;;
37275;SDS011;23166;51.150;21.620;2022-09-24T11:12:53;0.72;;;0.70;;
37275;SDS011;23166;51.150;21.620;2022-09-24T11:30:05;1.87;;;1.30;;
37275;SDS011;23166;51.150;21.620;2022-09-24T11:47:38;1.87;;;1.10;;
37275;SDS011;23166;51.150;21.620;2022-09-24T11:49:32;2.42;;;1.30;;
37275;SDS011;23166;51.150;21.620;2022-09-24T12:00:28;0.75;;;0.62;;
37275;SDS011;23166;51.150;21.620;2022-09-24T12:03:01;3.08;;;1.35;;
37275;SDS011;23166;51.150;21.620;2022-09-24T12:05:36;1.30;;;0.78;;
37275;SDS011;23166;51.150;21.620;2022-09-24T12:13:35;0.90;;;0.82;;
37275;SDS011;23166;51.150;21.620;2022-09-24T12:16:06;1.65;;;0.80;;
37275;SDS011;23166;51.150;21.620;2022-09-24T12:21:40;0.78;;;0.68;;
37275;SDS011;23166;51.150;21.620;2022-09-24T12:23:52;1.40;;;0.90;;
37275;SDS011;23166;51.150;21.620;2022-09-24T12:26:22;0.88;;;0.75;;
37275;SDS011;23166;51.150;21.620;2022-09-24T12:31:51;7.00;;;2.75;;
37275;SDS011;23166;51.150;21.620;2022-09-24T12:34:48;3.72;;;1.37;;
37275;SDS011;23166;51.150;21.620;2022-09-24T12:37:17;0.93;;;0.80;;
37275;SDS011;23166;51.150;21.620;2022-09-24T12:42:22;2.00;;;1.35;;
37275;SDS011;23166;51.150;21.620;2022-09-24T12:44:53;1.62;;;1.00;;
37275;SDS011;23166;51.150;21.620;2022-09-24T12:47:23;2.05;;;0.95;;
37275;SDS011;23166;51.150;21.620;2022-09-24T12:49:53;0.95;;;0.88;;
37275;SDS011;23166;51.150;21.620;2022-09-24T12:52:38;1.98;;;0.80;;
37275;SDS011;23166;51.150;21.620;2022-09-24T12:55:04;1.25;;;1.10;;
37275;SDS011;23166;51.150;21.620;2022-09-24T12:57:34;1.15;;;0.90;;
37275;SDS011;23166;51.150;21.620;2022-09-24T13:00:44;1.30;;;0.90;;
37275;SDS011;23166;51.150;21.620;2022-09-24T13:02:52;2.10;;;1.37;;
37275;SDS011;23166;51.150;21.620;2022-09-24T13:07:55;2.42;;;1.02;;
37275;SDS011;23166;51.150;21.620;2022-09-24T13:10:28;1.35;;;1.10;;
37275;SDS011;23166;51.150;21.620;2022-09-24T13:12:54;1.02;;;0.90;;
37275;SDS011;23166;51.150;21.620;2022-09-24T13:15:23;2.22;;;1.65;;
37275;SDS011;23166;51.150;21.620;2022-09-24T13:20:40;6.53;;;3.67;;
37275;SDS011;23166;51.150;21.620;2022-09-24T13:23:28;4.00;;;2.55;;
37275;SDS011;23166;51.150;21.620;2022-09-24T13:25:59;3.40;;;2.17;;
37275;SDS011;23166;51.150;21.620;2022-09-24T13:28:30;4.20;;;2.15;;
37275;SDS011;23166;51.150;21.620;2022-09-24T13:36:44;1.72;;;1.15;;
37275;SDS011;23166;51.150;21.620;2022-09-24T13:39:23;1.93;;;1.10;;
37275;SDS011;23166;51.150;21.620;2022-09-24T13:41:59;4.15;;;1.60;;
37275;SDS011;23166;51.150;21.620;2022-09-24T13:44:35;4.08;;;2.10;;
37275;SDS011;23166;51.150;21.620;2022-09-24T13:53:10;2.60;;;1.67;;
37275;SDS011;23166;51.150;21.620;2022-09-24T13:55:45;8.23;;;3.17;;
37275;SDS011;23166;51.150;21.620;2022-09-24T14:01:01;8.93;;;3.37;;
37275;SDS011;23166;51.150;21.620;2022-09-24T14:03:30;7.55;;;2.22;;
37275;SDS011;23166;51.150;21.620;2022-09-24T14:05:59;4.58;;;2.22;;
37275;SDS011;23166;51.150;21.620;2022-09-24T14:08:27;2.83;;;2.37;;
37275;SDS011;23166;51.150;21.620;2022-09-24T14:11:04;3.92;;;2.25;;
37275;SDS011;23166;51.150;21.620;2022-09-24T14:13:34;2.62;;;2.00;;
37275;SDS011;23166;51.150;21.620;2022-09-24T14:16:07;3.12;;;1.60;;
37275;SDS011;23166;51.150;21.620;2022-09-24T14:18:35;3.02;;;1.80;;
37275;SDS011;23166;51.150;21.620;2022-09-24T14:21:03;5.53;;;1.82;;
37275;SDS011;23166;51.150;21.620;2022-09-24T14:23:34;2.62;;;1.65;;
37275;SDS011;23166;51.150;21.620;2022-09-24T14:26:02;2.77;;;1.52;;
37275;SDS011;23166;51.150;21.620;2022-09-24T14:28:29;3.75;;;1.92;;
37275;SDS011;23166;51.150;21.620;2022-09-24T14:30:57;3.83;;;1.40;;
37275;SDS011;23166;51.150;21.620;2022-09-24T14:33:27;4.42;;;2.52;;
37275;SDS011;23166;51.150;21.620;2022-09-24T14:35:55;8.20;;;3.30;;
37275;SDS011;23166;51.150;21.620;2022-09-24T14:40:56;5.40;;;3.25;;
37275;SDS011;23166;51.150;21.620;2022-09-24T14:43:33;3.60;;;2.20;;
37275;SDS011;23166;51.150;21.620;2022-09-24T14:46:05;3.98;;;2.80;;
37275;SDS011;23166;51.150;21.620;2022-09-24T14:48:46;4.35;;;2.02;;
37275;SDS011;23166;51.150;21.620;2022-09-24T14:53:58;4.87;;;2.00;;
37275;SDS011;23166;51.150;21.620;2022-09-24T14:56:31;6.28;;;2.85;;
37275;SDS011;23166;51.150;21.620;2022-09-24T14:58:59;2.47;;;1.50;;
37275;SDS011;23166;51.150;21.620;2022-09-24T15:01:29;2.90;;;1.82;;
37275;SDS011;23166;51.150;21.620;2022-09-24T15:04:02;4.95;;;2.17;;
37275;SDS011;23166;51.150;21.620;2022-09-24T15:06:28;5.15;;;2.60;;
37275;SDS011;23166;51.150;21.620;2022-09-24T15:09:04;6.55;;;2.92;;
37275;SDS011;23166;51.150;21.620;2022-09-24T15:11:33;3.05;;;1.70;;
37275;SDS011;23166;51.150;21.620;2022-09-24T15:14:29;3.62;;;2.12;;
37275;SDS011;23166;51.150;21.620;2022-09-24T15:16:48;2.42;;;2.02;;
37275;SDS011;23166;51.150;21.620;2022-09-24T15:19:20;3.17;;;1.82;;
37275;SDS011;23166;51.150;21.620;2022-09-24T15:21:51;2.62;;;1.82;;
37275;SDS011;23166;51.150;21.620;2022-09-24T15:24:21;3.12;;;2.22;;
37275;SDS011;23166;51.150;21.620;2022-09-24T15:26:57;5.67;;;2.50;;
37275;SDS011;23166;51.150;21.620;2022-09-24T15:29:35;2.58;;;2.27;;
37275;SDS011;23166;51.150;21.620;2022-09-24T15:32:01;3.67;;;2.10;;
37275;SDS011;23166;51.150;21.620;2022-09-24T15:34:29;4.83;;;2.95;;
37275;SDS011;23166;51.150;21.620;2022-09-24T15:36:56;3.72;;;2.30;;
37275;SDS011;23166;51.150;21.620;2022-09-24T15:39:24;2.55;;;2.35;;
37275;SDS011;23166;51.150;21.620;2022-09-24T15:41:52;2.65;;;2.20;;
37275;SDS011;23166;51.150;21.620;2022-09-24T15:44:19;3.52;;;2.55;;
37275;SDS011;23166;51.150;21.620;2022-09-24T15:46:48;4.92;;;2.90;;
37275;SDS011;23166;51.150;21.620;2022-09-24T15:49:16;7.42;;;3.35;;
37275;SDS011;23166;51.150;21.620;2022-09-24T15:51:45;5.50;;;3.25;;
37275;SDS011;23166;51.150;21.620;2022-09-24T15:54:11;4.28;;;3.10;;
37275;SDS011;23166;51.150;21.620;2022-09-24T15:56:38;9.75;;;3.80;;
37275;SDS011;23166;51.150;21.620;2022-09-24T15:59:11;6.97;;;3.77;;
37275;SDS011;23166;51.150;21.620;2022-09-24T16:01:39;5.95;;;3.37;;
37275;SDS011;23166;51.150;21.620;2022-09-24T16:04:08;5.37;;;3.40;;
37275;SDS011;23166;51.150;21.620;2022-09-24T16:06:36;6.70;;;3.47;;
37275;SDS011;23166;51.150;21.620;2022-09-24T16:09:02;29.95;;;5.30;;
37275;SDS011;23166;51.150;21.620;2022-09-24T16:11:29;5.40;;;3.65;;
37275;SDS011;23166;51.150;21.620;2022-09-24T16:13:56;11.50;;;6.87;;
37275;SDS011;23166;51.150;21.620;2022-09-24T16:16:23;20.40;;;8.48;;
37275;SDS011;23166;51.150;21.620;2022-09-24T16:18:49;15.18;;;7.05;;
37275;SDS011;23166;51.150;21.620;2022-09-24T16:21:17;41.70;;;14.53;;
37275;SDS011;23166;51.150;21.620;2022-09-24T16:23:43;19.15;;;8.70;;
37275;SDS011;23166;51.150;21.620;2022-09-24T16:26:09;14.13;;;6.42;;
37275;SDS011;23166;51.150;21.620;2022-09-24T16:28:36;12.73;;;6.47;;
37275;SDS011;23166;51.150;21.620;2022-09-24T16:31:06;22.98;;;6.78;;
37275;SDS011;23166;51.150;21.620;2022-09-24T16:33:36;18.07;;;8.73;;
37275;SDS011;23166;51.150;21.620;2022-09-24T16:36:03;29.30;;;11.28;;
37275;SDS011;23166;51.150;21.620;2022-09-24T16:38:34;25.60;;;11.08;;
37275;SDS011;23166;51.150;21.620;2022-09-24T16:41:01;26.07;;;10.82;;
37275;SDS011;23166;51.150;21.620;2022-09-24T16:43:28;27.82;;;11.48;;
37275;SDS011;23166;51.150;21.620;2022-09-24T16:46:03;28.60;;;12.50;;
37275;SDS011;23166;51.150;21.620;2022-09-24T16:48:28;35.63;;;13.15;;
37275;SDS011;23166;51.150;21.620;2022-09-24T16:51:03;31.00;;;12.37;;
37275;SDS011;23166;51.150;21.620;2022-09-24T16:53:27;28.07;;;10.95;;
37275;SDS011;23166;51.150;21.620;2022-09-24T16:58:38;133.65;;;39.98;;
37275;SDS011;23166;51.150;21.620;2022-09-24T17:01:07;112.25;;;42.98;;
37275;SDS011;23166;51.150;21.620;2022-09-24T17:03:36;108.27;;;38.02;;
37275;SDS011;23166;51.150;21.620;2022-09-24T17:06:03;111.52;;;41.98;;
37275;SDS011;23166;51.150;21.620;2022-09-24T17:08:30;103.70;;;36.77;;
37275;SDS011;23166;51.150;21.620;2022-09-24T17:11:16;66.62;;;26.23;;
37275;SDS011;23166;51.150;21.620;2022-09-24T17:13:42;68.17;;;27.02;;
37275;SDS011;23166;51.150;21.620;2022-09-24T17:16:09;63.78;;;24.10;;
37275;SDS011;23166;51.150;21.620;2022-09-24T17:18:35;53.85;;;18.60;;
37275;SDS011;23166;51.150;21.620;2022-09-24T17:21:03;50.55;;;18.85;;
37275;SDS011;23166;51.150;21.620;2022-09-24T17:23:31;47.05;;;18.02;;
37275;SDS011;23166;51.150;21.620;2022-09-24T17:26:12;50.95;;;17.42;;
37275;SDS011;23166;51.150;21.620;2022-09-24T17:28:45;38.67;;;16.52;;
37275;SDS011;23166;51.150;21.620;2022-09-24T17:31:10;99.50;;;27.20;;
37275;SDS011;23166;51.150;21.620;2022-09-24T17:33:39;118.17;;;32.67;;
37275;SDS011;23166;51.150;21.620;2022-09-24T17:36:06;140.55;;;35.35;;